Time;durP1;ratioP1;P1;durP2;ratioP2;P2;SDS_P1;SDS_P2;PMS_P1;PMS_P2;Temp;Humidity;BMP_temperature;BMP_pressure;BME280_temperature;BME280_humidity;BME280_pressure;Samples;Min_cycle;Max_cycle;Signal;HPM_P1;HPM_P2
2023/06/14 00:01:13;;;;;;;4.85;2.20;;;29.60;94.70;;;;;;5107690;28;20250;-62
2023/06/14 00:03:39;;;;;;;4.20;2.50;;;29.70;95.30;;;;;;5107469;28;20212;-58
2023/06/14 00:06:06;;;;;;;4.53;2.50;;;29.70;95.50;;;;;;5107493;28;20331;-66
2023/06/14 00:08:33;;;;;;;6.88;3.15;;;29.70;95.60;;;;;;5107505;28;20364;-60
2023/06/14 00:10:59;;;;;;;11.48;3.53;;;29.60;95.70;;;;;;5107121;28;20071;-57
2023/06/14 00:13:29;;;;;;;6.13;3.40;;;29.70;95.90;;;;;;5107515;28;20035;-55
2023/06/14 00:15:56;;;;;;;8.73;2.90;;;29.70;96.10;;;;;;5107464;28;20062;-66
2023/06/14 00:18:29;;;;;;;9.73;3.20;;;29.70;96.30;;;;;;5107104;28;20330;-55
2023/06/14 00:20:56;;;;;;;6.68;2.58;;;29.70;96.30;;;;;;5092373;28;20019;-57
2023/06/14 00:23:22;;;;;;;4.75;3.08;;;29.70;96.50;;;;;;5107312;28;20361;-57
2023/06/14 00:25:49;;;;;;;6.40;2.60;;;29.70;96.60;;;;;;5106965;28;20040;-55
2023/06/14 00:28:15;;;;;;;7.65;2.55;;;29.70;97.00;;;;;;5107190;28;20027;-55
2023/06/14 00:30:43;;;;;;;5.20;2.38;;;29.80;97.00;;;;;;5106982;28;20047;-57
2023/06/14 00:33:10;;;;;;;2.45;1.88;;;29.80;97.00;;;;;;5106873;28;20016;-58
2023/06/14 00:35:37;;;;;;;2.63;1.65;;;29.70;97.10;;;;;;5105772;28;20062;-56
2023/06/14 00:38:03;;;;;;;4.70;1.75;;;29.80;97.40;;;;;;5106826;28;20035;-58
2023/06/14 00:40:30;;;;;;;6.50;1.70;;;29.80;97.40;;;;;;5106971;28;20096;-56
2023/06/14 00:42:56;;;;;;;3.75;2.25;;;29.80;97.60;;;;;;5106688;28;20265;-57
2023/06/14 00:45:23;;;;;;;5.60;2.97;;;29.90;97.70;;;;;;5107181;28;20296;-55
2023/06/14 00:47:54;;;;;;;8.82;3.30;;;29.90;97.60;;;;;;5106577;28;20331;-55
2023/06/14 00:50:23;;;;;;;5.15;2.97;;;29.80;97.90;;;;;;5107208;28;20023;-55
2023/06/14 00:52:49;;;;;;;5.18;2.90;;;29.80;98.00;;;;;;5100401;28;20028;-52
2023/06/14 00:55:16;;;;;;;7.30;2.72;;;29.70;98.20;;;;;;5089374;28;20069;-54
2023/06/14 00:57:43;;;;;;;5.53;2.60;;;29.90;98.30;;;;;;5086381;28;20052;-54
2023/06/14 01:00:11;;;;;;;5.40;2.92;;;29.80;98.20;;;;;;5086711;28;20043;-54
2023/06/14 01:02:38;;;;;;;20.38;4.50;;;29.80;98.30;;;;;;5086066;28;20047;-54
2023/06/14 01:05:08;;;;;;;47.08;7.15;;;29.80;98.40;;;;;;5086656;28;20215;-53
2023/06/14 01:07:47;;;;;;;11.52;3.63;;;29.80;98.40;;;;;;5086184;28;20067;-53
2023/06/14 01:10:41;;;;;;;10.43;4.63;;;29.90;98.60;;;;;;5085988;28;20116;-54
2023/06/14 01:13:48;;;;;;;9.82;5.13;;;29.90;98.80;;;;;;5085683;28;20078;-52
2023/06/14 01:16:16;;;;;;;6.82;3.90;;;30.00;99.00;;;;;;5043828;28;20075;-57
2023/06/14 01:18:47;;;;;;;7.75;4.00;;;29.90;98.90;;;;;;5077712;28;20036;-54
2023/06/14 01:21:25;;;;;;;5.25;3.95;;;29.90;98.90;;;;;;5086135;28;20023;-54
2023/06/14 01:23:55;;;;;;;7.22;2.75;;;29.80;99.00;;;;;;5085888;28;20086;-56
2023/06/14 01:26:22;;;;;;;5.80;2.20;;;29.90;99.30;;;;;;5089450;28;20251;-55
2023/06/14 01:28:52;;;;;;;4.05;1.70;;;29.90;99.20;;;;;;5096948;28;20026;-58
2023/06/14 01:31:21;;;;;;;6.03;1.70;;;30.00;99.50;;;;;;5105860;28;20036;-56
2023/06/14 01:33:50;;;;;;;4.63;1.90;;;30.00;99.50;;;;;;5105891;28;20020;-60
2023/06/14 01:36:22;;;;;;;4.50;1.80;;;30.00;99.60;;;;;;5105580;28;20346;-58
2023/06/14 01:38:50;;;;;;;5.30;1.60;;;30.00;99.60;;;;;;5105600;28;20034;-55
2023/06/14 01:41:18;;;;;;;4.68;1.50;;;30.00;99.70;;;;;;5105358;28;20026;-57
2023/06/14 01:43:47;;;;;;;5.57;1.42;;;30.00;99.80;;;;;;5102349;28;20212;-56
2023/06/14 01:46:15;;;;;;;4.60;1.45;;;30.00;99.60;;;;;;5094073;28;20024;-54
2023/06/14 01:48:45;;;;;;;6.88;1.40;;;29.90;99.70;;;;;;5097665;28;20031;-54
2023/06/14 01:51:12;;;;;;;3.78;1.33;;;29.80;99.60;;;;;;5100547;28;20024;-54
2023/06/14 01:53:38;;;;;;;5.32;1.60;;;29.90;99.60;;;;;;5084988;28;20057;-56
2023/06/14 01:56:06;;;;;;;9.30;2.30;;;29.80;99.50;;;;;;5079205;28;20027;-60
2023/06/14 01:58:33;;;;;;;6.47;1.20;;;29.80;99.60;;;;;;5073806;28;20009;-55
2023/06/14 02:01:00;;;;;;;3.95;1.38;;;29.70;99.20;;;;;;5092042;28;20107;-54
2023/06/14 02:03:27;;;;;;;6.72;1.45;;;29.70;99.30;;;;;;5099093;28;20311;-55
2023/06/14 02:05:55;;;;;;;7.85;1.60;;;29.70;99.50;;;;;;5078418;28;20066;-57
2023/06/14 02:08:23;;;;;;;49.47;5.32;;;29.70;99.60;;;;;;5084685;28;20141;-57
2023/06/14 02:10:49;;;;;;;43.65;4.97;;;29.70;99.60;;;;;;5084420;28;20229;-58
2023/06/14 02:13:16;;;;;;;35.53;4.13;;;29.60;99.60;;;;;;5084610;28;20122;-55
2023/06/14 02:15:43;;;;;;;15.95;2.53;;;29.60;99.50;;;;;;5084736;28;20099;-54
2023/06/14 02:18:11;;;;;;;8.63;1.52;;;29.60;99.40;;;;;;5084486;28;20020;-55
2023/06/14 02:20:40;;;;;;;14.07;1.85;;;29.60;99.50;;;;;;5084535;28;20024;-55
2023/06/14 02:23:07;;;;;;;6.45;1.67;;;29.50;99.50;;;;;;5084529;28;20050;-54
2023/06/14 02:25:34;;;;;;;9.35;1.60;;;29.40;99.40;;;;;;5084485;28;20107;-55
2023/06/14 02:28:02;;;;;;;9.18;1.50;;;29.40;99.10;;;;;;5083633;28;20261;-55
2023/06/14 02:30:29;;;;;;;6.38;1.00;;;29.40;99.20;;;;;;5084363;28;20033;-53
2023/06/14 02:32:56;;;;;;;6.53;1.25;;;29.30;98.80;;;;;;5093601;28;20020;-54
2023/06/14 02:35:26;;;;;;;5.82;1.02;;;29.20;98.90;;;;;;5086012;28;20319;-55
2023/06/14 02:37:53;;;;;;;5.30;1.10;;;29.10;98.70;;;;;;5084237;28;20040;-57
2023/06/14 02:40:20;;;;;;;4.00;1.02;;;29.10;98.50;;;;;;5084588;28;20134;-56
2023/06/14 02:42:46;;;;;;;6.00;1.02;;;29.10;98.40;;;;;;5084317;28;20027;-57
2023/06/14 02:45:13;;;;;;;7.60;1.20;;;29.00;98.60;;;;;;5083250;28;20041;-57
2023/06/14 02:47:40;;;;;;;6.03;0.95;;;28.90;98.50;;;;;;5084059;28;20056;-60
2023/06/14 02:50:07;;;;;;;3.92;1.00;;;28.90;98.30;;;;;;5084724;28;20276;-56
2023/06/14 02:52:34;;;;;;;3.72;1.00;;;28.80;98.10;;;;;;5084292;28;20111;-54
2023/06/14 02:55:00;;;;;;;6.22;1.13;;;28.90;98.20;;;;;;5084481;28;20032;-56
2023/06/14 02:57:27;;;;;;;2.70;1.30;;;28.80;98.20;;;;;;5084089;28;20020;-56
2023/06/14 02:59:53;;;;;;;6.80;1.40;;;28.80;98.40;;;;;;5072926;28;20024;-59
2023/06/14 03:02:20;;;;;;;5.22;1.58;;;28.80;98.50;;;;;;5074662;28;20391;-56
2023/06/14 03:04:46;;;;;;;4.20;2.60;;;28.80;98.50;;;;;;5087910;28;20028;-55
2023/06/14 03:07:19;;;;;;;5.70;2.92;;;28.80;98.50;;;;;;5070163;28;20025;-56
2023/06/14 03:09:46;;;;;;;8.43;3.20;;;28.70;98.30;;;;;;5074801;28;20044;-57
2023/06/14 03:12:14;;;;;;;6.20;2.92;;;28.70;98.30;;;;;;5080386;28;20021;-54
2023/06/14 03:14:41;;;;;;;3.92;1.90;;;28.60;98.30;;;;;;5084552;28;20216;-58
2023/06/14 03:17:09;;;;;;;5.47;1.83;;;28.70;98.30;;;;;;5079748;28;20078;-56
2023/06/14 03:19:36;;;;;;;5.05;2.05;;;28.70;98.50;;;;;;5079955;28;20219;-59
2023/06/14 03:22:02;;;;;;;7.50;2.03;;;28.70;98.60;;;;;;5072919;28;20037;-56
2023/06/14 03:24:29;;;;;;;7.30;1.88;;;28.70;98.80;;;;;;5064302;28;20024;-56
2023/06/14 03:26:56;;;;;;;4.95;1.50;;;28.70;98.60;;;;;;5076614;28;20032;-56
2023/06/14 03:29:23;;;;;;;5.45;1.60;;;28.60;98.40;;;;;;5084173;28;20042;-56
2023/06/14 03:32:03;;;;;;;4.55;1.33;;;28.50;98.50;;;;;;5083567;28;20316;-56
2023/06/14 03:34:30;;;;;;;3.70;1.05;;;28.50;98.60;;;;;;5084159;28;20035;-57
2023/06/14 03:36:56;;;;;;;4.15;0.95;;;28.60;98.70;;;;;;5082219;28;20081;-56
2023/06/14 03:39:24;;;;;;;3.80;0.88;;;28.60;98.70;;;;;;5084550;28;20023;-50
2023/06/14 03:41:51;;;;;;;4.35;0.88;;;28.70;98.70;;;;;;5091992;28;20025;-55
2023/06/14 03:44:18;;;;;;;4.50;1.20;;;28.90;98.70;;;;;;5083900;28;20013;-56
2023/06/14 03:46:46;;;;;;;8.45;1.25;;;29.00;98.50;;;;;;5083061;28;20033;-56
2023/06/14 03:49:13;;;;;;;4.22;0.90;;;29.10;98.10;;;;;;5083697;28;20028;-57
2023/06/14 03:51:40;;;;;;;4.35;1.10;;;29.10;97.80;;;;;;5083523;28;20021;-57
2023/06/14 03:54:07;;;;;;;3.60;0.90;;;29.20;97.60;;;;;;5080275;28;20027;-53
2023/06/14 03:56:33;;;;;;;2.45;1.00;;;29.20;97.30;;;;;;5063033;28;20082;-55
2023/06/14 03:59:00;;;;;;;5.13;1.10;;;29.20;97.00;;;;;;5062952;28;20088;-56
2023/06/14 04:01:29;;;;;;;4.57;0.95;;;29.30;96.90;;;;;;5061605;28;20084;-54
2023/06/14 04:03:57;;;;;;;7.28;1.30;;;29.30;96.70;;;;;;5061759;28;20024;-58
2023/06/14 04:06:24;;;;;;;5.30;1.20;;;29.20;96.50;;;;;;5061606;28;20071;-59
2023/06/14 04:08:52;;;;;;;7.63;1.02;;;29.20;96.40;;;;;;5061690;28;20096;-59
2023/06/14 04:11:19;;;;;;;4.00;0.90;;;29.20;96.20;;;;;;5081111;28;20060;-59
2023/06/14 04:13:46;;;;;;;5.18;1.17;;;29.30;96.10;;;;;;5085625;28;20086;-56
2023/06/14 04:16:13;;;;;;;7.97;1.38;;;29.20;96.00;;;;;;5086830;28;20080;-56
2023/06/14 04:18:40;;;;;;;8.00;1.30;;;29.30;96.00;;;;;;5067448;28;20029;-56
2023/06/14 04:21:08;;;;;;;4.30;0.80;;;29.30;95.80;;;;;;5067004;28;20407;-56
2023/06/14 04:23:34;;;;;;;5.22;0.98;;;29.20;95.80;;;;;;5066594;28;20017;-52
2023/06/14 04:26:01;;;;;;;5.75;1.10;;;29.30;95.70;;;;;;5066307;28;20063;-57
2023/06/14 04:28:28;;;;;;;3.95;1.00;;;29.30;95.70;;;;;;5066782;28;20088;-56
2023/06/14 04:30:54;;;;;;;2.70;0.98;;;29.30;95.60;;;;;;5066649;28;20250;-57
2023/06/14 04:33:22;;;;;;;6.53;0.70;;;;;;;;;;5066671;28;20191;-61
2023/06/14 04:35:53;;;;;;;5.35;0.90;;;29.20;95.50;;;;;;5066849;28;20059;-59
2023/06/14 04:38:24;;;;;;;5.03;0.95;;;29.20;95.40;;;;;;5066360;28;20021;-56
2023/06/14 04:40:52;;;;;;;2.15;0.80;;;29.10;95.50;;;;;;5066216;28;20037;-54
2023/06/14 04:43:24;;;;;;;3.75;0.80;;;;;;;;;;5066490;28;20104;-54
2023/06/14 04:45:51;;;;;;;5.25;0.93;;;29.20;95.40;;;;;;5066555;28;20190;-59
2023/06/14 04:48:20;;;;;;;3.40;0.90;;;29.10;95.50;;;;;;5065921;28;20029;-59
2023/06/14 04:50:47;;;;;;;4.47;0.70;;;29.10;95.40;;;;;;5066248;28;20032;-62
2023/06/14 04:53:14;;;;;;;2.00;0.88;;;29.20;95.40;;;;;;5072080;28;20088;-60
2023/06/14 04:55:44;;;;;;;4.72;0.70;;;29.20;95.40;;;;;;5086213;28;20025;-55
2023/06/14 04:58:12;;;;;;;3.28;0.77;;;29.20;95.40;;;;;;5086337;28;20012;-56
2023/06/14 05:00:39;;;;;;;3.67;0.70;;;29.20;95.30;;;;;;5084162;28;20052;-55
2023/06/14 05:03:05;;;;;;;3.88;0.90;;;29.20;95.20;;;;;;5066070;28;20029;-57
2023/06/14 05:05:32;;;;;;;5.72;0.90;;;29.10;95.10;;;;;;5066468;28;20029;-53
2023/06/14 05:07:59;;;;;;;2.13;0.70;;;29.10;95.10;;;;;;5066085;28;20313;-55
2023/06/14 05:10:27;;;;;;;5.00;0.85;;;29.10;95.10;;;;;;5065952;28;20128;-60
2023/06/14 05:12:54;;;;;;;5.20;0.80;;;29.10;95.00;;;;;;5065813;28;20087;-59
2023/06/14 05:15:25;;;;;;;4.60;0.85;;;29.10;95.00;;;;;;5066384;28;20305;-56
2023/06/14 05:17:55;;;;;;;6.38;0.70;;;29.10;94.90;;;;;;5071471;28;20068;-58
2023/06/14 05:20:26;;;;;;;3.38;0.98;;;29.10;94.80;;;;;;5086142;28;20040;-59
2023/06/14 05:22:56;;;;;;;5.53;1.02;;;29.10;94.70;;;;;;5085267;28;20094;-52
2023/06/14 05:25:23;;;;;;;5.20;0.80;;;29.00;94.60;;;;;;5085702;28;20032;-53
2023/06/14 05:27:50;;;;;;;2.50;0.60;;;28.90;94.60;;;;;;5085601;28;20036;-59
2023/06/14 05:30:16;;;;;;;3.45;1.00;;;28.90;94.70;;;;;;5086079;28;20024;-57
2023/06/14 05:32:44;;;;;;;7.05;1.33;;;28.90;94.70;;;;;;5085681;28;20281;-57
2023/06/14 05:35:11;;;;;;;5.30;1.25;;;28.90;94.80;;;;;;5085810;28;20190;-60
2023/06/14 05:37:38;;;;;;;2.30;1.17;;;28.90;95.00;;;;;;5085516;28;20027;-57
2023/06/14 05:40:06;;;;;;;7.07;1.30;;;28.90;95.00;;;;;;5085944;28;20028;-59
2023/06/14 05:42:33;;;;;;;3.58;0.90;;;28.90;95.10;;;;;;5085288;28;20225;-55
2023/06/14 05:44:59;;;;;;;6.78;1.20;;;28.90;95.10;;;;;;5085761;28;20043;-54
2023/06/14 05:47:27;;;;;;;2.25;0.90;;;28.90;95.10;;;;;;5085592;28;20044;-59
2023/06/14 05:49:55;;;;;;;2.60;1.02;;;29.00;95.20;;;;;;5085479;28;20033;-57
2023/06/14 05:52:21;;;;;;;1.92;0.95;;;28.90;95.20;;;;;;5085497;28;20087;-60
2023/06/14 05:54:48;;;;;;;5.22;0.90;;;28.90;95.20;;;;;;5085464;28;20035;-57
2023/06/14 05:57:14;;;;;;;5.50;1.40;;;28.80;95.20;;;;;;5085267;28;20123;-58
2023/06/14 05:59:41;;;;;;;2.28;0.68;;;28.90;95.30;;;;;;5085406;28;20027;-59
2023/06/14 06:02:08;;;;;;;3.97;1.05;;;28.90;95.40;;;;;;5085046;28;20017;-59
2023/06/14 06:04:34;;;;;;;5.47;0.93;;;28.90;95.50;;;;;;5104836;28;20024;-59
2023/06/14 06:07:01;;;;;;;4.22;1.17;;;29.00;95.60;;;;;;5105187;28;20031;-57
2023/06/14 06:09:27;;;;;;;4.18;1.00;;;29.00;95.70;;;;;;5105247;28;20044;-60
2023/06/14 06:11:54;;;;;;;3.42;0.90;;;29.00;95.80;;;;;;5104996;28;20051;-63
2023/06/14 06:14:21;;;;;;;3.03;0.82;;;29.00;95.80;;;;;;5105319;28;20047;-62
2023/06/14 06:16:47;;;;;;;4.95;1.00;;;29.00;96.00;;;;;;5105058;28;20035;-61
2023/06/14 06:19:14;;;;;;;3.20;0.90;;;29.00;96.00;;;;;;5105071;28;20095;-63
2023/06/14 06:21:40;;;;;;;3.40;1.00;;;29.10;96.10;;;;;;5104953;28;20077;-56
2023/06/14 06:24:07;;;;;;;2.53;0.85;;;29.00;96.00;;;;;;5105215;28;20016;-55
2023/06/14 06:26:34;;;;;;;4.00;0.98;;;29.00;96.10;;;;;;5104789;28;20039;-56
2023/06/14 06:29:01;;;;;;;4.85;0.90;;;29.00;96.00;;;;;;5104959;28;20063;-55
2023/06/14 06:31:27;;;;;;;2.65;0.88;;;29.10;96.10;;;;;;5104783;28;20371;-58
2023/06/14 06:33:57;;;;;;;5.22;0.95;;;29.10;96.00;;;;;;5103913;28;20035;-58
2023/06/14 06:36:23;;;;;;;3.13;1.02;;;29.00;96.10;;;;;;5104628;28;20291;-59
2023/06/14 06:38:50;;;;;;;5.60;0.93;;;29.00;96.30;;;;;;5104852;28;20075;-59
2023/06/14 06:41:17;;;;;;;4.97;1.10;;;29.00;96.60;;;;;;5104491;28;20024;-56
2023/06/14 06:43:43;;;;;;;5.00;0.73;;;29.10;96.40;;;;;;5104918;28;20028;-55
2023/06/14 06:46:10;;;;;;;5.40;0.93;;;29.10;96.30;;;;;;5104579;28;20028;-59
2023/06/14 06:48:36;;;;;;;5.78;0.90;;;29.00;96.30;;;;;;5104571;28;20031;-60
2023/06/14 06:51:03;;;;;;;5.28;0.98;;;29.00;96.30;;;;;;5104361;28;20319;-60
2023/06/14 06:53:29;;;;;;;4.40;0.98;;;29.00;96.30;;;;;;5104530;28;20024;-58
2023/06/14 06:55:56;;;;;;;5.38;0.70;;;28.90;96.20;;;;;;5104222;28;20112;-58
2023/06/14 06:58:23;;;;;;;4.15;1.02;;;28.90;96.20;;;;;;5104206;28;20038;-54
2023/06/14 07:00:50;;;;;;;6.43;1.08;;;28.80;96.20;;;;;;5100844;28;20028;-61
2023/06/14 07:03:16;;;;;;;4.53;0.90;;;28.80;96.20;;;;;;5083979;28;20312;-54
2023/06/14 07:05:43;;;;;;;4.57;1.02;;;28.90;96.30;;;;;;5083938;28;20219;-55
2023/06/14 07:08:09;;;;;;;5.97;0.98;;;28.90;96.40;;;;;;5083946;28;20024;-59
2023/06/14 07:10:37;;;;;;;4.90;1.00;;;28.90;96.40;;;;;;5084038;28;20110;-61
2023/06/14 07:13:03;;;;;;;7.32;1.20;;;28.90;96.40;;;;;;5083696;28;20027;-55
2023/06/14 07:15:30;;;;;;;4.20;0.80;;;28.90;96.50;;;;;;5083849;28;20067;-60
2023/06/14 07:17:59;;;;;;;6.60;1.10;;;28.80;96.50;;;;;;5083981;28;20028;-61
2023/06/14 07:20:26;;;;;;;4.28;1.10;;;28.80;96.50;;;;;;5084249;28;20066;-61
2023/06/14 07:22:52;;;;;;;4.30;1.00;;;28.80;96.60;;;;;;5083902;28;20031;-58
2023/06/14 07:25:19;;;;;;;5.07;1.08;;;28.90;96.60;;;;;;5084266;28;20036;-60
2023/06/14 07:27:46;;;;;;;3.88;0.88;;;28.80;96.60;;;;;;5083678;28;20087;-61
2023/06/14 07:30:13;;;;;;;3.65;1.05;;;28.90;96.60;;;;;;5084283;28;20020;-57
2023/06/14 07:32:40;;;;;;;4.97;1.10;;;28.90;96.60;;;;;;5084447;28;20033;-56
2023/06/14 07:35:07;;;;;;;3.83;1.02;;;28.90;96.60;;;;;;5104208;28;20352;-61
2023/06/14 07:37:34;;;;;;;5.43;1.00;;;28.90;96.70;;;;;;5104196;28;20312;-61
2023/06/14 07:40:04;;;;;;;3.97;1.17;;;28.90;96.70;;;;;;5104403;28;20032;-55
2023/06/14 07:42:30;;;;;;;6.75;1.20;;;29.00;96.70;;;;;;5103826;28;20079;-56
2023/06/14 07:44:57;;;;;;;5.90;1.42;;;28.80;96.50;;;;;;5105878;28;20016;-60
2023/06/14 07:47:23;;;;;;;6.40;1.17;;;28.90;96.60;;;;;;5107932;28;20032;-60
2023/06/14 07:49:50;;;;;;;6.57;1.25;;;28.90;96.60;;;;;;5108075;28;20019;-53
2023/06/14 07:52:17;;;;;;;4.57;1.10;;;28.80;96.80;;;;;;5107932;28;20020;-53
2023/06/14 07:54:44;;;;;;;5.70;1.02;;;28.90;96.90;;;;;;5107628;28;20028;-54
2023/06/14 07:57:10;;;;;;;6.63;1.15;;;28.80;97.00;;;;;;5107511;28;20061;-55
2023/06/14 07:59:37;;;;;;;6.03;1.05;;;28.90;97.10;;;;;;5108280;28;20012;-55
2023/06/14 08:02:04;;;;;;;5.22;1.10;;;28.90;97.20;;;;;;5107714;28;20201;-56
2023/06/14 08:04:31;;;;;;;6.18;0.90;;;28.80;97.20;;;;;;5107725;28;20083;-57
2023/06/14 08:06:58;;;;;;;5.40;1.02;;;28.90;97.30;;;;;;5107591;28;20381;-54
2023/06/14 08:09:25;;;;;;;5.63;1.25;;;28.90;97.30;;;;;;5107530;28;20043;-54
2023/06/14 08:11:52;;;;;;;5.00;1.20;;;28.90;97.40;;;;;;5107302;28;20028;-57
2023/06/14 08:14:18;;;;;;;5.45;1.08;;;28.90;97.40;;;;;;5107671;28;20188;-54
2023/06/14 08:16:45;;;;;;;4.78;0.82;;;29.00;97.50;;;;;;5107293;28;20051;-54
2023/06/14 08:19:11;;;;;;;3.05;0.80;;;28.90;97.50;;;;;;5107394;28;20012;-57
2023/06/14 08:21:38;;;;;;;4.10;1.02;;;29.00;97.60;;;;;;5107487;28;20023;-55
2023/06/14 08:24:04;;;;;;;5.53;1.02;;;28.90;97.40;;;;;;5107542;28;20031;-55
2023/06/14 08:26:31;;;;;;;4.18;0.90;;;28.90;97.40;;;;;;5107122;28;20072;-58
2023/06/14 08:28:58;;;;;;;7.78;0.90;;;28.80;97.50;;;;;;5107354;28;20295;-57
2023/06/14 08:31:25;;;;;;;3.30;0.90;;;28.90;97.60;;;;;;5107198;28;20051;-55
2023/06/14 08:33:51;;;;;;;4.22;1.00;;;28.90;97.60;;;;;;5107192;28;20019;-57
2023/06/14 08:36:18;;;;;;;4.07;1.00;;;28.90;97.60;;;;;;5106929;28;20254;-55
2023/06/14 08:38:45;;;;;;;4.72;1.00;;;28.80;97.60;;;;;;5107060;28;20024;-57
2023/06/14 08:41:17;;;;;;;4.43;0.65;;;28.80;97.70;;;;;;5106889;28;20022;-56
2023/06/14 08:43:43;;;;;;;;;;;28.80;97.70;;;;;;5107429;28;20020;-55
2023/06/14 08:46:12;;;;;;;1.98;0.77;;;28.80;97.80;;;;;;5106838;28;19908;-55
2023/06/14 08:48:39;;;;;;;5.45;1.13;;;28.80;97.90;;;;;;5106676;28;20019;-56
2023/06/14 08:51:07;;;;;;;8.35;0.90;;;28.90;98.00;;;;;;5106747;28;20028;-56
2023/06/14 08:53:41;;;;;;;4.65;1.00;;;28.80;98.00;;;;;;5106752;28;20104;-56
2023/06/14 08:56:13;;;;;;;7.20;1.13;;;28.90;98.10;;;;;;5105340;28;20031;-54
2023/06/14 08:58:45;;;;;;;4.63;0.88;;;28.90;98.20;;;;;;5106623;28;20208;-55
2023/06/14 09:01:14;;;;;;;6.50;0.82;;;28.90;98.20;;;;;;5106530;28;20035;-60
2023/06/14 09:03:41;;;;;;;7.18;0.90;;;28.90;98.20;;;;;;5106496;28;20034;-54
2023/06/14 09:06:13;;;;;;;4.55;0.95;;;28.90;98.20;;;;;;5106407;28;20315;-55
2023/06/14 09:08:50;;;;;;;5.00;0.93;;;28.80;98.20;;;;;;5106375;28;20027;-59
2023/06/14 09:11:21;;;;;;;4.40;0.85;;;28.90;98.30;;;;;;5106127;28;20511;-54
2023/06/14 09:13:48;;;;;;;4.53;0.90;;;28.90;98.30;;;;;;5106434;28;20024;-56
2023/06/14 09:16:15;;;;;;;6.35;0.80;;;28.90;98.30;;;;;;5106034;28;20039;-54
2023/06/14 09:18:44;;;;;;;5.38;0.95;;;28.90;98.50;;;;;;5106451;28;20020;-55
2023/06/14 09:21:12;;;;;;;5.43;1.00;;;28.90;98.20;;;;;;5106197;28;20028;-60
2023/06/14 09:23:47;;;;;;;8.20;1.27;;;28.90;98.20;;;;;;5105915;28;20028;-60
2023/06/14 09:26:20;;;;;;;4.82;1.20;;;28.90;98.30;;;;;;5105992;28;20027;-59
2023/06/14 09:28:48;;;;;;;7.28;1.10;;;28.90;98.20;;;;;;5105896;28;20039;-60
2023/06/14 09:31:17;;;;;;;5.88;1.27;;;28.90;98.10;;;;;;5105894;28;20091;-57
2023/06/14 09:33:48;;;;;;;3.90;0.80;;;28.90;98.10;;;;;;5106028;28;20087;-57
2023/06/14 09:36:21;;;;;;;4.05;1.08;;;28.80;98.00;;;;;;5105607;28;20035;-57
2023/06/14 09:38:54;;;;;;;3.75;1.20;;;28.80;97.90;;;;;;5105891;28;20036;-56
2023/06/14 09:41:30;;;;;;;5.40;1.08;;;28.80;98.00;;;;;;5105582;28;20251;-61
2023/06/14 09:44:00;;;;;;;11.30;1.40;;;28.80;98.00;;;;;;5105896;28;20027;-60
2023/06/14 09:46:30;;;;;;;5.38;1.02;;;28.80;98.00;;;;;;5105548;28;20323;-60
2023/06/14 09:48:58;;;;;;;8.75;1.27;;;28.70;98.00;;;;;;5105706;28;20043;-58
2023/06/14 09:51:25;;;;;;;9.20;1.30;;;28.80;98.10;;;;;;5105504;28;20079;-59
2023/06/14 09:53:53;;;;;;;8.70;1.23;;;28.70;97.90;;;;;;5105799;28;20242;-61
2023/06/14 09:56:26;;;;;;;8.38;1.45;;;28.70;98.00;;;;;;5105422;28;20067;-55
2023/06/14 09:58:56;;;;;;;5.03;1.15;;;28.80;97.90;;;;;;5105512;28;20054;-55
2023/06/14 10:01:25;;;;;;;5.10;1.10;;;28.80;97.90;;;;;;5105199;28;20028;-61
2023/06/14 10:04:08;;;;;;;4.20;1.15;;;28.70;97.90;;;;;;5105397;28;20113;-57
2023/06/14 10:06:39;;;;;;;8.00;1.20;;;28.70;97.80;;;;;;5105114;28;20194;-54
2023/06/14 10:09:08;;;;;;;6.40;1.27;;;28.70;97.80;;;;;;5105082;28;20022;-55
2023/06/14 10:11:36;;;;;;;5.30;1.52;;;28.70;97.70;;;;;;5105193;28;20127;-58
2023/06/14 10:14:06;;;;;;;10.25;1.58;;;28.60;97.70;;;;;;5105144;28;20027;-55
2023/06/14 10:16:36;;;;;;;6.68;1.48;;;28.70;97.80;;;;;;5104991;28;20034;-57
2023/06/14 10:19:35;;;;;;;7.55;1.27;;;28.70;97.70;;;;;;5105206;28;20020;-62
2023/06/14 10:22:05;;;;;;;5.10;1.38;;;28.70;97.70;;;;;;5099585;28;20039;-54
2023/06/14 10:24:43;;;;;;;4.55;1.10;;;28.70;97.60;;;;;;5104783;28;20035;-55
2023/06/14 10:27:13;;;;;;;5.38;1.30;;;28.70;97.70;;;;;;5104868;28;20052;-56
2023/06/14 10:29:57;;;;;;;6.88;1.20;;;28.60;97.60;;;;;;5105202;28;20216;-59
2023/06/14 10:32:30;;;;;;;7.88;1.45;;;28.70;97.70;;;;;;5104828;28;20027;-57
2023/06/14 10:35:08;;;;;;;9.65;1.55;;;28.70;97.70;;;;;;5104893;28;20034;-57
2023/06/14 10:37:35;;;;;;;9.23;1.63;;;28.60;97.70;;;;;;5104700;28;20091;-58
2023/06/14 10:40:02;;;;;;;6.13;1.67;;;28.60;97.70;;;;;;5105075;28;20212;-60
2023/06/14 10:42:32;;;;;;;10.38;1.45;;;28.60;97.70;;;;;;5104433;28;20051;-60
2023/06/14 10:45:00;;;;;;;6.15;1.48;;;28.60;97.80;;;;;;5104990;28;20191;-56
2023/06/14 10:47:40;;;;;;;7.68;1.60;;;28.60;97.90;;;;;;5104496;28;20036;-57
2023/06/14 10:50:14;;;;;;;8.50;1.80;;;28.60;97.90;;;;;;5104952;28;20300;-56
2023/06/14 10:52:45;;;;;;;7.38;1.42;;;28.60;97.90;;;;;;5104430;28;20032;-56
2023/06/14 10:55:19;;;;;;;9.50;1.75;;;28.60;97.90;;;;;;5104513;28;20204;-58
2023/06/14 10:57:57;;;;;;;8.73;1.90;;;28.60;97.90;;;;;;5104195;28;20032;-56
2023/06/14 11:00:26;;;;;;;8.27;1.83;;;28.60;97.90;;;;;;5104708;28;20203;-58
2023/06/14 11:03:16;;;;;;;9.15;2.20;;;28.50;97.90;;;;;;5104327;28;20253;-56
2023/06/14 11:05:56;;;;;;;7.18;2.30;;;28.60;97.80;;;;;;5104302;28;20043;-54
2023/06/14 11:08:40;;;;;;;11.68;2.80;;;28.60;97.80;;;;;;5104117;28;20028;-56
2023/06/14 11:11:09;;;;;;;9.57;2.65;;;28.60;97.80;;;;;;5103988;28;20056;-55
2023/06/14 11:13:43;;;;;;;8.43;2.15;;;28.50;97.80;;;;;;5104187;28;20024;-53
2023/06/14 11:16:21;;;;;;;12.30;2.20;;;28.60;97.80;;;;;;5103870;28;20028;-58
2023/06/14 11:18:49;;;;;;;6.60;1.70;;;28.60;97.70;;;;;;5103913;28;20062;-52
2023/06/14 11:21:19;;;;;;;3.55;1.30;;;28.60;97.70;;;;;;5103765;28;20076;-59
2023/06/14 11:23:53;;;;;;;5.78;1.70;;;28.60;97.80;;;;;;5104176;28;20031;-58
2023/06/14 11:26:30;;;;;;;5.68;1.70;;;28.60;97.70;;;;;;5104026;28;20031;-61
2023/06/14 11:28:59;;;;;;;7.07;1.50;;;28.70;97.80;;;;;;5104438;28;20063;-59
2023/06/14 11:31:27;;;;;;;4.18;1.50;;;28.60;97.80;;;;;;5104060;28;20051;-59
2023/06/14 11:34:00;;;;;;;6.82;1.50;;;28.70;97.80;;;;;;5103958;28;20031;-54
2023/06/14 11:36:35;;;;;;;5.45;1.50;;;28.70;97.80;;;;;;5099397;28;20036;-53
2023/06/14 11:39:09;;;;;;;6.85;1.67;;;28.70;97.90;;;;;;5077625;28;20035;-57
2023/06/14 11:41:41;;;;;;;7.93;1.63;;;28.70;97.80;;;;;;5076926;28;20032;-52
2023/06/14 11:44:08;;;;;;;4.30;1.30;;;28.70;97.90;;;;;;5083893;28;20028;-54
2023/06/14 11:46:35;;;;;;;6.50;1.58;;;28.80;97.90;;;;;;5083474;28;20047;-55
2023/06/14 11:49:04;;;;;;;5.38;1.23;;;28.80;97.90;;;;;;5084010;28;20336;-53
2023/06/14 11:51:34;;;;;;;5.60;1.33;;;28.80;97.90;;;;;;5083146;28;20032;-54
2023/06/14 11:54:05;;;;;;;6.78;1.17;;;28.80;97.80;;;;;;5082934;28;20247;-57
2023/06/14 11:56:32;;;;;;;5.88;1.00;;;28.80;97.80;;;;;;5083435;28;20036;-57
2023/06/14 11:59:00;;;;;;;5.43;1.15;;;28.80;97.80;;;;;;5083659;28;20342;-56
2023/06/14 12:01:26;;;;;;;5.35;1.20;;;28.80;97.80;;;;;;5081842;28;20059;-58
2023/06/14 12:03:55;;;;;;;5.40;1.38;;;28.90;97.90;;;;;;5080166;28;20092;-61
2023/06/14 12:06:32;;;;;;;8.18;1.63;;;28.80;97.90;;;;;;5083402;28;20060;-54
2023/06/14 12:09:01;;;;;;;3.45;1.20;;;28.90;98.00;;;;;;5083599;28;20043;-55
2023/06/14 12:11:35;;;;;;;4.63;1.48;;;28.90;98.40;;;;;;5083579;28;20231;-66
2023/06/14 12:14:08;;;;;;;7.68;1.77;;;28.90;98.80;;;;;;5083566;28;20029;-57
2023/06/14 12:16:35;;;;;;;4.47;1.90;;;29.00;99.40;;;;;;5083350;28;20029;-67
2023/06/14 12:19:15;;;;;;;9.75;3.22;;;29.10;99.70;;;;;;5083609;28;20032;-66
2023/06/14 12:21:43;;;;;;;12.32;3.70;;;29.20;99.80;;;;;;5083514;28;20027;-59
2023/06/14 12:24:12;;;;;;;9.13;3.70;;;29.30;99.90;;;;;;5083516;28;20035;-72
2023/06/14 12:26:40;;;;;;;11.57;3.70;;;29.20;99.90;;;;;;5082675;28;20029;-69
2023/06/14 12:29:07;;;;;;;9.35;3.75;;;29.30;99.90;;;;;;5073812;28;20085;-62
2023/06/14 12:31:34;;;;;;;11.07;3.17;;;29.60;99.90;;;;;;5070435;28;20056;-61
2023/06/14 12:34:01;;;;;;;9.07;3.40;;;29.80;99.90;;;;;;5086808;28;20048;-49
2023/06/14 12:36:28;;;;;;;9.40;3.65;;;30.10;99.90;;;;;;5086801;28;20032;-63
2023/06/14 12:38:55;;;;;;;8.10;2.78;;;30.20;99.90;;;;;;5086963;28;20028;-67
2023/06/14 12:41:22;;;;;;;4.78;2.40;;;30.40;99.90;;;;;;5086482;28;20086;-62
2023/06/14 12:43:49;;;;;;;5.70;2.42;;;30.50;99.90;;;;;;5086966;28;20012;-57
2023/06/14 12:46:15;;;;;;;8.40;2.70;;;30.70;99.90;;;;;;5086612;28;20092;-56
2023/06/14 12:48:42;;;;;;;8.05;2.40;;;30.70;99.90;;;;;;5086457;28;20024;-58
2023/06/14 12:51:08;;;;;;;9.50;3.10;;;30.70;99.90;;;;;;5086450;28;20020;-55
2023/06/14 12:53:35;;;;;;;9.93;2.95;;;30.90;99.90;;;;;;5077359;28;20053;-60
2023/06/14 12:56:01;;;;;;;7.25;2.80;;;31.00;99.90;;;;;;5085895;28;20020;-56